createdAt,value
2022-08-18T00:02:09.346Z,7.93
2022-08-18T00:04:46.825Z,7.37
2022-08-18T00:07:37.098Z,7.73
2022-08-18T00:10:06.200Z,8.53
2022-08-18T00:12:39.160Z,8.17
2022-08-18T00:15:13.581Z,8.97
2022-08-18T00:17:41.029Z,7.93
2022-08-18T00:20:11.836Z,8.37
2022-08-18T00:22:40.018Z,9.00
2022-08-18T00:25:09.997Z,8.47
2022-08-18T00:27:38.302Z,9.27
2022-08-18T00:30:09.814Z,9.67
2022-08-18T00:32:43.216Z,9.20
2022-08-18T00:35:14.373Z,10.00
2022-08-18T00:37:42.862Z,9.00
2022-08-18T00:40:14.048Z,8.80
2022-08-18T00:43:04.790Z,8.60
2022-08-18T00:45:36.632Z,9.60
2022-08-18T00:48:06.259Z,9.73
2022-08-18T00:50:51.755Z,8.77
2022-08-18T00:53:44.180Z,9.57
2022-08-18T00:56:16.214Z,8.93
2022-08-18T00:58:49.246Z,9.40
2022-08-18T01:01:18.111Z,9.20
2022-08-18T01:03:53.030Z,10.20
2022-08-18T01:06:37.458Z,11.67
2022-08-18T01:09:04.354Z,10.77
2022-08-18T01:11:32.304Z,9.40
2022-08-18T01:13:59.279Z,11.53
2022-08-18T01:16:56.695Z,11.17
2022-08-18T01:19:44.428Z,12.10
2022-08-18T01:22:22.430Z,13.67
2022-08-18T01:25:26.508Z,11.03
2022-08-18T01:27:59.719Z,12.03
2022-08-18T01:30:28.540Z,11.07
2022-08-18T01:32:57.477Z,11.20
2022-08-18T01:35:27.103Z,11.53
2022-08-18T01:37:54.909Z,10.47
2022-08-18T01:41:01.002Z,11.67
2022-08-18T01:43:11.811Z,11.27
2022-08-18T01:45:38.987Z,11.60
2022-08-18T01:48:05.954Z,12.93
2022-08-18T01:50:36.324Z,11.97
2022-08-18T01:53:05.904Z,11.80
2022-08-18T01:55:35.709Z,12.33
2022-08-18T01:58:02.568Z,12.27
2022-08-18T02:00:29.743Z,11.87
2022-08-18T02:02:58.197Z,12.37
2022-08-18T02:05:37.343Z,12.97
2022-08-18T02:08:05.004Z,11.80
2022-08-18T02:10:32.174Z,12.30
2022-08-18T02:12:59.191Z,12.47
2022-08-18T02:15:26.074Z,14.67
2022-08-18T02:17:53.070Z,11.80
2022-08-18T02:20:20.466Z,12.40
2022-08-18T02:22:48.673Z,11.20
2022-08-18T02:25:17.035Z,12.43
2022-08-18T02:27:45.902Z,12.20
2022-08-18T02:30:15.870Z,12.97
2022-08-18T02:32:42.914Z,12.90
2022-08-18T02:35:11.866Z,12.50
2022-08-18T02:37:42.716Z,12.83
2022-08-18T02:40:14.863Z,12.47
2022-08-18T02:42:42.872Z,13.40
2022-08-18T02:45:10.196Z,14.93
2022-08-18T02:47:37.161Z,12.17
2022-08-18T02:50:04.986Z,12.60
2022-08-18T02:52:34.546Z,12.10
2022-08-18T02:55:02.239Z,12.47
2022-08-18T02:57:29.964Z,13.47
2022-08-18T02:59:57.194Z,13.50
2022-08-18T03:02:26.612Z,13.13
2022-08-18T03:04:53.477Z,12.77
2022-08-18T03:07:20.424Z,13.43
2022-08-18T03:09:47.262Z,13.13
2022-08-18T03:12:14.072Z,12.93
2022-08-18T03:14:41.178Z,13.30
2022-08-18T03:17:09.055Z,15.20
2022-08-18T03:19:36.604Z,14.93
2022-08-18T03:22:27.279Z,13.30
2022-08-18T03:24:54.449Z,12.77
2022-08-18T03:27:21.328Z,15.30
2022-08-18T03:29:48.094Z,13.17
2022-08-18T03:32:14.911Z,13.87
2022-08-18T03:34:42.971Z,13.10
2022-08-18T03:37:10.178Z,15.57
2022-08-18T03:39:37.055Z,13.80
2022-08-18T03:42:04.109Z,13.00
2022-08-18T03:44:37.015Z,13.03
2022-08-18T03:47:13.171Z,14.20
2022-08-18T03:49:40.643Z,14.43
2022-08-18T03:52:10.777Z,14.03
2022-08-18T03:54:39.250Z,14.77
2022-08-18T03:57:09.419Z,14.47
2022-08-18T03:59:36.390Z,13.70
2022-08-18T04:02:04.837Z,13.80
2022-08-18T04:04:31.834Z,13.97
2022-08-18T04:07:05.013Z,14.13
2022-08-18T04:09:33.694Z,16.07
2022-08-18T04:12:15.490Z,15.17
2022-08-18T04:14:48.014Z,15.17
2022-08-18T04:17:16.401Z,15.50
2022-08-18T04:19:43.346Z,14.80
2022-08-18T04:22:10.173Z,14.77
2022-08-18T04:24:44.594Z,14.47
2022-08-18T04:27:12.280Z,15.70
2022-08-18T04:29:39.354Z,14.80
2022-08-18T04:32:06.449Z,15.27
2022-08-18T04:34:36.820Z,15.00
2022-08-18T04:37:03.824Z,14.27
2022-08-18T04:39:33.779Z,15.00
2022-08-18T04:42:04.988Z,15.67
2022-08-18T04:44:31.924Z,14.07
2022-08-18T04:47:00.565Z,14.47
2022-08-18T04:49:27.560Z,14.50
2022-08-18T04:52:36.484Z,14.63
2022-08-18T04:55:01.877Z,14.43
2022-08-18T04:57:29.181Z,14.67
2022-08-18T05:00:01.198Z,14.53
2022-08-18T05:02:28.139Z,13.73
2022-08-18T05:04:55.078Z,14.57
2022-08-18T05:07:25.619Z,14.87
2022-08-18T05:09:55.072Z,13.47
2022-08-18T05:12:25.834Z,14.50
2022-08-18T05:14:54.006Z,14.37
2022-08-18T05:17:21.001Z,14.03
2022-08-18T05:19:48.553Z,14.10
2022-08-18T05:22:19.697Z,13.60
2022-08-18T05:24:55.343Z,13.13
2022-08-18T05:27:22.181Z,13.27
2022-08-18T05:29:51.626Z,14.50
2022-08-18T05:32:30.310Z,13.87
2022-08-18T05:35:23.499Z,14.23
2022-08-18T05:38:19.999Z,12.97
2022-08-18T05:40:59.588Z,13.43
2022-08-18T05:43:26.413Z,14.57
2022-08-18T05:45:54.576Z,12.67
2022-08-18T05:48:21.428Z,14.93
2022-08-18T05:50:51.877Z,14.30
2022-08-18T05:53:20.640Z,13.33
2022-08-18T05:56:19.310Z,13.53
2022-08-18T05:58:51.003Z,12.37
2022-08-18T06:01:32.953Z,12.13
2022-08-18T06:04:13.975Z,11.93
2022-08-18T06:06:47.391Z,12.23
2022-08-18T06:09:49.545Z,10.43
2022-08-18T06:12:22.899Z,10.60
2022-08-18T06:14:50.408Z,11.23
2022-08-18T06:17:34.716Z,11.73
2022-08-18T06:20:19.193Z,11.60
2022-08-18T06:22:57.407Z,9.70
2022-08-18T06:25:30.402Z,10.87
2022-08-18T06:28:07.496Z,11.47
2022-08-18T06:30:55.313Z,10.67
2022-08-18T06:33:50.639Z,11.10
2022-08-18T06:36:29.303Z,11.40
2022-08-18T06:38:56.487Z,11.07
2022-08-18T06:41:43.853Z,10.40
2022-08-18T06:44:31.771Z,11.00
2022-08-18T06:47:07.270Z,11.07
2022-08-18T06:49:45.369Z,11.57
2022-08-18T06:52:27.405Z,10.90
2022-08-18T06:54:56.984Z,9.90
2022-08-18T06:57:29.589Z,10.87
2022-08-18T07:00:21.722Z,9.67
2022-08-18T07:03:11.949Z,10.00
2022-08-18T07:06:01.452Z,10.23
2022-08-18T07:08:37.213Z,10.30
2022-08-18T07:11:25.813Z,10.20
2022-08-18T07:14:15.610Z,10.63
2022-08-18T07:16:59.800Z,10.50
2022-08-18T07:19:31.030Z,10.27
2022-08-18T07:22:06.808Z,10.33
2022-08-18T07:24:42.331Z,10.27
2022-08-18T07:27:40.578Z,11.27
2022-08-18T07:30:15.234Z,12.10
2022-08-18T07:32:54.727Z,12.20
2022-08-18T07:35:32.963Z,12.13
2022-08-18T07:38:41.074Z,13.13
2022-08-18T07:41:05.071Z,12.53
2022-08-18T07:44:03.396Z,11.83
2022-08-18T07:46:51.558Z,11.80
2022-08-18T07:49:24.828Z,12.90
2022-08-18T07:52:04.528Z,12.40
2022-08-18T07:54:51.740Z,10.87
2022-08-18T07:57:43.984Z,10.60
2022-08-18T08:00:40.956Z,11.97
2022-08-18T08:03:14.727Z,10.40
2022-08-18T08:06:32.593Z,10.80
2022-08-18T08:09:17.747Z,10.00
2022-08-18T08:12:01.107Z,9.67
2022-08-18T08:14:41.424Z,10.50
2022-08-18T08:17:13.667Z,8.73
2022-08-18T08:20:02.881Z,8.98
2022-08-18T08:23:17.685Z,9.13
2022-08-18T08:25:56.701Z,8.23
2022-08-18T08:28:57.914Z,7.82
2022-08-18T08:31:49.284Z,8.30
2022-08-18T08:34:30.046Z,8.95
2022-08-18T08:37:07.745Z,10.15
2022-08-18T08:39:58.112Z,7.43
2022-08-18T08:42:49.973Z,9.25
2022-08-18T08:45:27.225Z,8.18
2022-08-18T08:48:15.189Z,8.70
2022-08-18T08:50:51.200Z,8.73
2022-08-18T08:53:35.335Z,9.93
2022-08-18T08:56:08.219Z,8.80
2022-08-18T08:58:40.620Z,8.85
2022-08-18T09:01:15.383Z,10.18
2022-08-18T09:04:19.775Z,8.73
2022-08-18T09:07:25.165Z,11.73
2022-08-18T09:10:14.985Z,9.48
2022-08-18T09:13:02.090Z,13.02
2022-08-18T09:15:39.738Z,9.32
2022-08-18T09:18:44.943Z,9.27
2022-08-18T09:21:35.236Z,9.97
2022-08-18T09:24:13.628Z,10.90
2022-08-18T09:27:07.184Z,9.55
2022-08-18T09:29:51.260Z,9.95
2022-08-18T09:32:22.992Z,10.57
2022-08-18T09:35:09.040Z,10.27
2022-08-18T09:38:09.354Z,10.07
2022-08-18T09:41:08.779Z,9.70
2022-08-18T09:46:58.647Z,9.95
2022-08-18T09:49:26.651Z,9.90
2022-08-18T09:51:59.616Z,9.45
2022-08-18T09:55:01.884Z,8.27
2022-08-18T09:57:43.946Z,9.40
2022-08-18T10:00:14.762Z,11.27
2022-08-18T10:02:41.878Z,8.10
2022-08-18T10:05:15.977Z,9.90
2022-08-18T10:08:14.831Z,9.07
2022-08-18T10:11:27.077Z,9.73
2022-08-18T10:13:59.429Z,9.45
2022-08-18T10:20:42.639Z,9.57
2022-08-18T10:23:10.524Z,8.40
2022-08-18T10:25:37.533Z,9.40
2022-08-18T10:28:07.874Z,8.35
2022-08-18T10:30:57.089Z,8.60
2022-08-18T10:34:16.063Z,8.40
2022-08-18T10:37:00.324Z,9.68
2022-08-18T10:39:41.156Z,8.98
2022-08-18T10:42:30.843Z,7.82
2022-08-18T10:45:27.042Z,7.38
2022-08-18T10:48:19.872Z,8.00
2022-08-18T10:50:58.803Z,8.10
2022-08-18T10:53:53.087Z,8.48
2022-08-18T10:56:33.066Z,8.65
2022-08-18T10:59:16.187Z,7.45
2022-08-18T11:02:05.505Z,7.60
2022-08-18T11:04:43.048Z,7.57
2022-08-18T11:07:23.868Z,7.22
2022-08-18T11:10:13.220Z,8.25
2022-08-18T11:13:00.210Z,7.65
2022-08-18T11:15:50.573Z,7.55
2022-08-18T11:18:43.022Z,8.40
2022-08-18T11:21:51.422Z,7.95
2022-08-18T11:24:21.233Z,7.43
2022-08-18T11:26:53.397Z,7.45
2022-08-18T11:29:41.565Z,7.53
2022-08-18T11:32:24.156Z,7.90
2022-08-18T11:34:59.845Z,7.82
2022-08-18T11:37:49.828Z,7.50
2022-08-18T11:40:51.795Z,7.50
2022-08-18T11:43:11.830Z,7.65
2022-08-18T11:46:00.023Z,8.65
2022-08-18T11:52:57.005Z,7.90
2022-08-18T11:55:34.553Z,9.05
2022-08-18T11:58:02.856Z,7.80
2022-08-18T12:00:48.920Z,8.02
2022-08-18T12:04:10.206Z,7.93
2022-08-18T12:10:31.694Z,7.80
2022-08-18T12:13:00.717Z,7.65
2022-08-18T12:15:46.570Z,8.38
2022-08-18T12:19:25.323Z,8.02
2022-08-18T12:30:42.863Z,7.20
2022-08-18T12:33:17.699Z,7.40
2022-08-18T12:36:01.455Z,6.75
2022-08-18T12:39:07.106Z,8.57
2022-08-18T12:42:01.210Z,6.60
2022-08-18T12:44:40.925Z,7.32
2022-08-18T12:47:31.261Z,7.55
2022-08-18T12:49:59.068Z,7.68
2022-08-18T12:52:52.542Z,9.05
2022-08-18T12:55:22.877Z,8.07
2022-08-18T12:57:53.434Z,7.82
2022-08-18T13:00:27.782Z,9.27
2022-08-18T13:02:59.642Z,8.68
2022-08-18T13:05:30.107Z,9.02
2022-08-18T13:08:06.542Z,7.43
2022-08-18T13:10:43.050Z,8.27
2022-08-18T13:13:14.698Z,9.10
2022-08-18T13:15:55.496Z,7.35
2022-08-18T13:18:27.328Z,7.78
2022-08-18T13:20:56.998Z,10.02
2022-08-18T13:23:25.159Z,7.50
2022-08-18T13:25:59.332Z,7.50
2022-08-18T13:28:30.918Z,7.85
2022-08-18T13:31:05.505Z,7.13
2022-08-18T13:33:34.653Z,7.68
2022-08-18T13:36:20.474Z,7.57
2022-08-18T13:38:54.695Z,7.47
2022-08-18T13:43:54.545Z,7.97
2022-08-18T13:46:24.432Z,7.88
2022-08-18T13:49:02.359Z,7.82
2022-08-18T13:51:35.238Z,7.32
2022-08-18T13:54:26.973Z,7.53
2022-08-18T13:56:51.800Z,7.35
2022-08-18T13:59:21.760Z,9.30
2022-08-18T14:01:52.955Z,7.45
2022-08-18T14:04:22.478Z,8.05
2022-08-18T14:06:57.041Z,8.13
2022-08-18T14:09:35.898Z,7.57
2022-08-18T14:12:28.247Z,8.30
2022-08-18T14:14:58.027Z,8.00
2022-08-18T14:17:25.967Z,8.27
2022-08-18T14:20:14.916Z,12.43
2022-08-18T14:23:01.186Z,8.23
2022-08-18T14:25:46.556Z,9.90
2022-08-18T14:28:14.079Z,8.17
2022-08-18T14:30:50.735Z,7.60
2022-08-18T14:33:34.201Z,7.70
2022-08-18T14:36:11.790Z,7.70
2022-08-18T14:38:39.321Z,7.30
2022-08-18T14:41:11.341Z,7.40
2022-08-18T14:44:11.034Z,7.63
2022-08-18T14:46:30.433Z,6.87
2022-08-18T14:49:04.052Z,7.80
2022-08-18T14:51:33.429Z,7.83
2022-08-18T14:54:03.983Z,8.20
2022-08-18T14:56:38.656Z,7.97
2022-08-18T14:59:07.572Z,7.83
2022-08-18T15:01:42.867Z,7.27
2022-08-18T15:04:19.307Z,7.93
2022-08-18T15:06:55.594Z,9.00
2022-08-18T15:09:24.164Z,8.27
2022-08-18T15:11:55.912Z,7.50
2022-08-18T15:14:32.744Z,7.63
2022-08-18T15:17:02.022Z,8.13
2022-08-18T15:19:59.179Z,10.57
2022-08-18T15:22:34.422Z,9.40
2022-08-18T15:25:23.989Z,7.70
2022-08-18T15:27:52.234Z,7.93
2022-08-18T15:30:20.982Z,7.57
2022-08-18T15:32:49.826Z,8.33
2022-08-18T15:35:19.512Z,7.67
2022-08-18T15:37:48.270Z,7.30
2022-08-18T15:40:31.335Z,8.70
2022-08-18T15:43:09.718Z,7.90
2022-08-18T15:45:43.509Z,9.57
2022-08-18T15:48:25.032Z,8.20
2022-08-18T15:50:52.561Z,8.23
2022-08-18T15:53:29.811Z,9.50
2022-08-18T15:55:57.446Z,8.20
2022-08-18T15:58:26.861Z,8.27
2022-08-18T16:00:56.548Z,8.43
2022-08-18T16:03:25.850Z,8.60
2022-08-18T16:05:55.159Z,8.63
2022-08-18T16:08:24.288Z,8.37
2022-08-18T16:10:52.942Z,9.00
2022-08-18T16:13:20.008Z,9.27
2022-08-18T16:15:51.007Z,8.97
2022-08-18T16:18:21.089Z,8.67
2022-08-18T16:20:48.444Z,8.97
2022-08-18T16:23:19.406Z,8.03
2022-08-18T16:25:46.214Z,8.80
2022-08-18T16:28:13.439Z,7.93
2022-08-18T16:30:41.211Z,8.20
2022-08-18T16:33:08.491Z,9.47
2022-08-18T16:35:37.193Z,8.60
2022-08-18T16:38:08.954Z,11.60
2022-08-18T16:40:36.881Z,9.50
2022-08-18T16:43:05.881Z,8.83
2022-08-18T16:45:34.611Z,8.70
2022-08-18T16:48:03.528Z,9.13
2022-08-18T16:50:30.435Z,8.50
2022-08-18T16:52:58.289Z,8.27
2022-08-18T16:55:25.325Z,8.43
2022-08-18T16:58:14.847Z,10.80
2022-08-18T17:01:01.345Z,10.07
2022-08-18T17:03:49.452Z,9.17
2022-08-18T17:06:18.412Z,8.40
2022-08-18T17:08:45.798Z,9.13
2022-08-18T17:11:18.902Z,8.77
2022-08-18T17:13:47.434Z,9.17
2022-08-18T17:16:15.006Z,10.03
2022-08-18T17:18:42.359Z,10.27
2022-08-18T17:21:13.497Z,9.60
2022-08-18T17:23:41.466Z,8.90
2022-08-18T17:26:12.837Z,10.23
2022-08-18T17:28:50.249Z,10.60
2022-08-18T17:31:20.854Z,9.00
2022-08-18T17:33:48.092Z,12.33
2022-08-18T17:36:33.987Z,13.93
2022-08-18T17:39:04.318Z,10.80
2022-08-18T17:41:31.237Z,9.97
2022-08-18T17:44:00.883Z,10.50
2022-08-18T17:46:33.190Z,10.57
2022-08-18T17:49:22.436Z,10.00
2022-08-18T17:51:55.442Z,9.67
2022-08-18T17:54:39.470Z,9.57
2022-08-18T17:57:14.320Z,12.80
2022-08-18T17:59:51.541Z,10.03
2022-08-18T18:02:29.547Z,10.37
2022-08-18T18:05:02.514Z,10.00
2022-08-18T18:07:38.661Z,8.80
2022-08-18T18:10:12.654Z,10.20
2022-08-18T18:12:40.087Z,9.93
2022-08-18T18:15:10.420Z,9.30
2022-08-18T18:17:40.366Z,10.07
2022-08-18T18:20:32.793Z,10.07
2022-08-18T18:23:24.469Z,10.50
2022-08-18T18:25:57.952Z,11.10
2022-08-18T18:28:33.805Z,9.60
2022-08-18T18:31:16.826Z,10.27
2022-08-18T18:33:45.140Z,9.93
2022-08-18T18:36:11.956Z,10.13
2022-08-18T18:38:48.995Z,11.20
2022-08-18T18:41:27.783Z,10.43
2022-08-18T18:44:09.618Z,12.10
2022-08-18T18:47:03.013Z,11.10
2022-08-18T18:49:50.537Z,10.80
2022-08-18T18:52:43.495Z,10.90
2022-08-18T18:55:17.912Z,9.70
2022-08-18T18:58:03.707Z,11.33
2022-08-18T19:00:40.613Z,10.87
2022-08-18T19:03:10.519Z,11.30
2022-08-18T19:05:45.556Z,10.27
2022-08-18T19:08:47.339Z,12.47
2022-08-18T19:11:43.961Z,12.07
2022-08-18T19:14:25.089Z,11.07
2022-08-18T19:16:59.706Z,11.70
2022-08-18T19:19:51.085Z,12.20
2022-08-18T19:22:29.564Z,12.77
2022-08-18T19:25:08.713Z,13.37
2022-08-18T19:27:40.106Z,14.47
2022-08-18T19:30:12.803Z,12.87
2022-08-18T19:32:51.051Z,13.83
2022-08-18T19:35:43.345Z,13.20
2022-08-18T19:38:31.755Z,15.00
2022-08-18T19:41:20.047Z,13.43
2022-08-18T19:44:25.780Z,12.83
2022-08-18T19:46:57.543Z,12.43
2022-08-18T19:49:50.086Z,12.60
2022-08-18T19:52:54.361Z,12.43
2022-08-18T19:56:01.548Z,12.20
2022-08-18T19:59:15.093Z,12.17
2022-08-18T20:01:52.884Z,11.93
2022-08-18T20:05:07.124Z,11.37
2022-08-18T20:08:07.435Z,11.07
2022-08-18T20:10:58.025Z,11.27
2022-08-18T20:13:40.210Z,11.40
2022-08-18T20:16:43.167Z,10.90
2022-08-18T20:19:46.085Z,11.17
2022-08-18T20:22:24.387Z,10.80
2022-08-18T20:24:59.694Z,10.57
2022-08-18T20:27:58.274Z,11.13
2022-08-18T20:31:06.853Z,10.67
2022-08-18T20:33:43.400Z,9.97
2022-08-18T20:36:32.360Z,10.37
2022-08-18T20:39:00.856Z,10.20
2022-08-18T20:41:45.289Z,9.93
2022-08-18T20:44:34.421Z,8.90
2022-08-18T20:47:26.291Z,9.70
2022-08-18T20:50:12.785Z,10.23
2022-08-18T20:53:09.713Z,10.27
2022-08-18T20:55:53.190Z,11.07
2022-08-18T20:58:25.296Z,10.67
2022-08-18T21:00:57.008Z,10.60
2022-08-18T21:03:38.263Z,10.60
2022-08-18T21:06:06.408Z,9.87
2022-08-18T21:08:36.471Z,10.73
2022-08-18T21:11:27.171Z,11.07
2022-08-18T21:14:03.730Z,11.60
2022-08-18T21:16:37.749Z,13.00
2022-08-18T21:19:23.408Z,12.80
2022-08-18T21:21:59.401Z,14.60
2022-08-18T21:24:36.886Z,13.07
2022-08-18T21:27:07.703Z,13.30
2022-08-18T21:29:47.154Z,13.30
2022-08-18T21:32:32.303Z,12.87
2022-08-18T21:35:05.792Z,13.30
2022-08-18T21:37:40.216Z,12.67
2022-08-18T21:40:07.801Z,13.07
2022-08-18T21:42:42.410Z,14.30
2022-08-18T21:45:23.180Z,13.03
2022-08-18T21:47:56.718Z,13.50
2022-08-18T21:50:26.863Z,14.13
2022-08-18T21:52:58.696Z,14.87
2022-08-18T21:55:58.888Z,14.23
2022-08-18T21:58:45.409Z,14.40
2022-08-18T22:01:19.259Z,14.00
2022-08-18T22:03:51.344Z,15.07
2022-08-18T22:06:32.945Z,14.37
2022-08-18T22:09:36.855Z,14.67
2022-08-18T22:12:52.475Z,14.53
2022-08-18T22:15:39.364Z,16.23
2022-08-18T22:18:16.734Z,15.20
2022-08-18T22:20:47.169Z,14.87
2022-08-18T22:23:32.478Z,16.43
2022-08-18T22:26:36.832Z,15.73
2022-08-18T22:29:06.543Z,16.27
2022-08-18T22:31:45.050Z,17.17
2022-08-18T22:34:27.862Z,16.77
2022-08-18T22:37:01.494Z,17.17
2022-08-18T22:39:31.255Z,17.73
2022-08-18T22:41:58.372Z,16.93
2022-08-18T22:44:25.583Z,18.00
2022-08-18T22:46:55.894Z,17.93
2022-08-18T22:49:24.233Z,19.67
2022-08-18T22:51:53.728Z,19.37
2022-08-18T22:54:21.575Z,19.97
2022-08-18T22:56:56.569Z,20.43
2022-08-18T22:59:26.812Z,21.97
2022-08-18T23:01:54.303Z,22.10
2022-08-18T23:04:22.810Z,22.00
2022-08-18T23:06:52.704Z,20.77
2022-08-18T23:09:28.183Z,22.70
2022-08-18T23:11:59.898Z,22.60
2022-08-18T23:14:27.008Z,21.60
2022-08-18T23:16:53.801Z,21.00
2022-08-18T23:19:21.653Z,21.07
2022-08-18T23:21:49.055Z,21.17
2022-08-18T23:24:18.497Z,19.47
2022-08-18T23:26:45.883Z,20.27
2022-08-18T23:29:14.315Z,18.43
2022-08-18T23:31:43.329Z,20.93
2022-08-18T23:34:13.216Z,19.93
2022-08-18T23:36:45.407Z,21.20
2022-08-18T23:39:14.552Z,20.57
2022-08-18T23:41:42.124Z,20.10
2022-08-18T23:44:10.650Z,21.50
2022-08-18T23:46:37.841Z,20.63
2022-08-18T23:49:06.094Z,20.50
2022-08-18T23:51:41.672Z,20.90
2022-08-18T23:54:17.021Z,20.37
2022-08-18T23:56:45.240Z,19.83
2022-08-18T23:59:13.538Z,20.50
